Time;durP1;ratioP1;P1;durP2;ratioP2;P2;SDS_P1;SDS_P2;PMS_P1;PMS_P2;Temp;Humidity;BMP_temperature;BMP_pressure;BME280_temperature;BME280_humidity;BME280_pressure;Samples;Min_cycle;Max_cycle;Signal;HPM_P1;HPM_P2
2021/11/07 10:11:09;;;;;;;3.67;2.40;;;;;;;6.52;99.87;99104.94;5119801;27;20562;-85
2021/11/07 10:13:37;;;;;;;5.63;2.87;;;;;;;7.01;100.00;99097.56;5075809;28;38898;-83
2021/11/07 10:16:10;;;;;;;4.03;3.13;;;;;;;7.60;96.52;99107.16;5048582;28;41001;-82
2021/11/07 10:18:43;;;;;;;2.20;2.00;;;;;;;8.02;91.54;99130.66;5048790;28;41613;-84
2021/11/07 10:21:18;;;;;;;2.43;2.20;;;;;;;8.26;88.98;99125.06;5044098;28;41050;-83
2021/11/07 10:23:49;;;;;;;2.40;2.20;;;;;;;8.39;87.30;99140.31;5075015;28;40558;-82
2021/11/07 10:26:21;;;;;;;2.70;2.10;;;;;;;8.39;86.14;99135.03;5042951;28;40561;-83
2021/11/07 10:28:53;;;;;;;2.30;1.83;;;;;;;8.40;84.81;99136.75;5078023;28;42824;-82
2021/11/07 10:31:25;;;;;;;5.03;2.10;;;;;;;8.44;84.25;99147.06;5045106;28;40995;-81
2021/11/07 10:34:12;;;;;;;4.10;2.57;;;;;;;8.32;83.63;99144.16;5045605;28;39766;-82
2021/11/07 10:40:07;;;;;;;1.70;1.60;;;;;;;8.37;82.61;99131.63;5041145;28;41895;-83
2021/11/07 10:45:27;;;;;;;2.07;1.50;;;;;;;8.44;82.15;99106.63;5054396;28;38966;-83
2021/11/07 10:48:19;;;;;;;4.37;2.30;;;;;;;8.52;82.05;99109.75;5069559;28;41759;-83
2021/11/07 10:53:42;;;;;;;3.00;1.80;;;;;;;8.67;80.91;99119.53;5064995;28;42171;-83
2021/11/07 10:56:12;;;;;;;2.20;1.97;;;;;;;8.81;80.87;99124.09;5047370;28;39443;-80
2021/11/07 10:58:46;;;;;;;3.53;2.00;;;;;;;8.86;80.83;99122.94;5064864;28;40947;-82
2021/11/07 11:01:19;;;;;;;2.60;2.27;;;;;;;8.94;80.58;99117.25;5047493;28;41813;-82
2021/11/07 11:03:50;;;;;;;2.30;2.10;;;;;;;8.86;79.92;99090.41;5064767;28;42475;-82
2021/11/07 11:06:17;;;;;;;2.53;1.90;;;;;;;9.14;80.20;99119.75;5078027;28;38804;-83
2021/11/07 11:08:52;;;;;;;2.67;1.80;;;;;;;9.26;80.20;99118.25;5047936;28;42014;-82
2021/11/07 11:11:26;;;;;;;2.00;1.67;;;;;;;9.31;79.84;99132.03;5047831;28;43019;-82
2021/11/07 11:14:01;;;;;;;1.60;1.50;;;;;;;9.31;79.63;99137.34;5027883;28;41109;-82
2021/11/07 11:16:41;;;;;;;1.60;1.20;;;;;;;9.24;79.54;99128.03;5064762;28;40397;-83
2021/11/07 11:19:31;;;;;;;2.40;2.07;;;;;;;9.28;79.46;99138.34;5063785;28;41927;-83
2021/11/07 11:25:29;;;;;;;2.47;1.50;;;;;;;9.17;79.32;99110.78;5013145;28;41169;-83
2021/11/07 11:28:18;;;;;;;2.73;1.40;;;;;;;9.28;79.43;99122.47;5038479;28;38851;-83
2021/11/07 11:31:04;;;;;;;2.70;1.73;;;;;;;9.32;79.48;99120.53;5064015;28;41722;-83
2021/11/07 11:33:38;;;;;;;2.07;1.60;;;;;;;9.32;79.37;99113.47;5030865;28;42575;-83
2021/11/07 11:36:16;;;;;;;2.43;1.60;;;;;;;9.25;79.44;99095.38;5047348;28;42248;-83
2021/11/07 11:38:48;;;;;;;2.47;1.53;;;;;;;9.36;79.42;99103.59;5049652;28;39902;-83
2021/11/07 11:41:22;;;;;;;2.13;1.47;;;;;;;9.41;79.17;99104.19;5050633;28;41862;-82
2021/11/07 11:43:52;;;;;;;1.70;1.60;;;;;;;9.43;78.98;99082.97;5049812;28;41698;-82
2021/11/07 11:46:35;;;;;;;1.60;1.50;;;;;;;9.47;78.83;99071.28;5033601;28;41981;-82
2021/11/07 11:49:27;;;;;;;2.57;1.40;;;;;;;9.69;78.57;99075.31;5050061;28;39909;-82
2021/11/07 11:52:13;;;;;;;1.33;1.07;;;;;;;9.77;78.18;99071.41;5047352;28;42294;-83
2021/11/07 12:00:52;;;;;;;2.00;1.10;;;;;;;10.28;77.32;99057.88;5107708;28;20675;-82
2021/11/07 12:03:48;;;;;;;1.17;1.07;;;;;;;10.40;76.25;99057.16;5088191;28;38826;-82
2021/11/07 12:06:27;;;;;;;1.37;1.20;;;;;;;10.62;75.38;99056.75;5089068;28;40813;-83
2021/11/07 12:09:19;;;;;;;1.17;0.87;;;;;;;10.71;75.11;99045.59;5084642;28;41584;-83
2021/11/07 12:11:52;;;;;;;1.43;1.00;;;;;;;10.78;74.55;99067.28;5085744;28;41815;-83
2021/11/07 12:14:27;;;;;;;1.13;0.97;;;;;;;10.74;74.51;99060.47;5087584;28;39585;-83
2021/11/07 12:16:59;;;;;;;0.90;0.90;;;;;;;10.66;74.31;99045.00;5088418;28;41801;-83
2021/11/07 12:19:34;;;;;;;1.13;0.90;;;;;;;10.74;74.12;99060.47;5105263;28;41884;-82
2021/11/07 12:22:10;;;;;;;1.57;1.27;;;;;;;10.79;74.44;99068.97;5106475;28;43049;-82
2021/11/07 12:24:54;;;;;;;0.97;0.70;;;;;;;10.72;74.25;99051.75;5107745;27;38721;-86
2021/11/07 12:27:25;;;;;;;1.13;1.00;;;;;;;10.68;74.06;99055.53;5105780;28;41848;-83
2021/11/07 12:29:56;;;;;;;1.87;1.10;;;;;;;10.67;73.87;99059.97;5105803;28;43338;-83
2021/11/07 12:32:31;;;;;;;1.10;1.10;;;;;;;10.62;74.01;99050.59;5088720;28;40790;-82
2021/11/07 12:35:21;;;;;;;1.10;1.00;;;;;;;10.63;73.97;99054.97;5106129;28;39461;-82
2021/11/07 12:40:48;;;;;;;0.60;0.60;;;;;;;10.79;73.96;99053.06;5072013;28;42370;-83
2021/11/07 12:43:19;;;;;;;1.07;0.97;;;;;;;10.84;73.78;99040.41;5067961;28;41461;-85
2021/11/07 12:45:50;;;;;;;1.70;1.53;;;;;;;10.48;73.56;99006.41;5101034;28;39200;-82
2021/11/07 12:48:39;;;;;;;1.00;0.90;;;;;;;10.76;73.85;99047.97;5104657;28;40750;-83
2021/11/07 12:51:10;;;;;;;1.33;0.90;;;;;;;10.65;73.78;99037.16;5106293;28;43093;-85
2021/11/07 12:54:10;;;;;;;1.00;0.70;;;;;;;10.66;73.72;99047.66;5088530;28;42427;-82
2021/11/07 12:56:51;;;;;;;0.90;0.77;;;;;;;10.58;74.05;99049.06;5047788;28;40856;-82
2021/11/07 12:59:22;;;;;;;1.53;0.70;;;;;;;10.55;73.53;99054.53;5079542;28;41130;-83
2021/11/07 13:02:12;;;;;;;0.87;0.70;;;;;;;10.57;74.39;99052.66;5105534;28;42684;-83
2021/11/07 13:04:55;;;;;;;1.07;0.97;;;;;;;10.56;74.44;99045.66;5104796;28;42604;-83
2021/11/07 13:07:26;;;;;;;0.80;0.80;;;;;;;10.51;74.05;99037.16;5087351;28;39989;-82
2021/11/07 13:09:57;;;;;;;2.27;0.90;;;;;;;10.51;74.01;99053.03;5104018;28;40555;-83
2021/11/07 13:12:29;;;;;;;0.87;0.87;;;;;;;10.50;73.90;99048.69;5074110;28;42529;-83
2021/11/07 13:15:22;;;;;;;1.13;0.90;;;;;;;10.42;73.99;99030.59;5074899;28;42064;-82
2021/11/07 13:23:41;;;;;;;0.93;0.90;;;;;;;10.63;74.13;99036.44;5088657;28;42830;-82
2021/11/07 13:26:16;;;;;;;0.80;0.80;;;;;;;10.65;73.42;99032.72;5070657;28;42631;-83
2021/11/07 13:28:46;;;;;;;0.73;0.73;;;;;;;10.70;73.91;99035.09;5054681;28;38963;-82
2021/11/07 13:31:19;;;;;;;1.63;0.80;;;;;;;10.77;74.17;99039.06;5080665;28;41907;-83
2021/11/07 13:33:48;;;;;;;1.63;1.03;;;;;;;10.83;73.26;99036.06;5074738;28;41337;-83
2021/11/07 13:36:20;;;;;;;0.90;0.90;;;;;;;10.94;73.62;99036.25;5072857;28;40792;-84
2021/11/07 13:38:59;;;;;;;1.07;0.97;;;;;;;11.10;73.25;99028.22;5091366;28;40862;-83
2021/11/07 13:41:27;;;;;;;0.90;0.90;;;;;;;11.16;73.44;99026.03;5074330;28;40531;-83
2021/11/07 13:43:59;;;;;;;1.37;0.90;;;;;;;11.15;72.46;99034.94;5074616;28;42831;-82
2021/11/07 13:46:27;;;;;;;1.07;0.97;;;;;;;10.99;72.22;99007.69;5108579;28;40655;-82
2021/11/07 13:49:02;;;;;;;1.53;0.70;;;;;;;11.01;72.62;99019.03;5073767;28;40366;-83
2021/11/07 13:51:32;;;;;;;0.80;0.80;;;;;;;11.06;72.38;99027.56;5090371;28;41535;-83
2021/11/07 13:54:01;;;;;;;0.80;0.80;;;;;;;11.08;72.22;99020.38;5074306;28;42128;-83
2021/11/07 13:56:30;;;;;;;0.87;0.87;;;;;;;11.14;71.76;99033.22;5070235;28;42326;-83
2021/11/07 13:58:58;;;;;;;1.50;1.20;;;;;;;11.18;71.80;99017.13;5054589;28;38842;-83
2021/11/07 14:01:30;;;;;;;0.90;0.90;;;;;;;10.96;71.26;98996.41;5082861;28;43225;-83
2021/11/07 14:03:59;;;;;;;1.33;1.03;;;;;;;11.15;71.06;99032.28;5069863;28;41688;-82
2021/11/07 14:06:31;;;;;;;0.90;0.90;;;;;;;11.07;71.28;99047.81;5090729;28;41101;-82
2021/11/07 14:09:03;;;;;;;0.90;0.90;;;;;;;11.01;71.89;99048.19;5090901;28;40737;-82
2021/11/07 14:11:33;;;;;;;0.77;0.70;;;;;;;10.71;71.79;99021.75;5090478;28;40481;-83
2021/11/07 14:14:06;;;;;;;1.17;1.07;;;;;;;10.85;72.09;99047.44;5089496;28;41682;-82
2021/11/07 14:16:40;;;;;;;0.90;0.83;;;;;;;10.83;72.34;99049.31;5107897;28;42355;-82
2021/11/07 14:19:09;;;;;;;1.40;1.00;;;;;;;10.66;72.49;99020.31;5085369;28;39158;-83
2021/11/07 14:21:41;;;;;;;0.70;0.70;;;;;;;10.65;72.64;99029.22;5073941;28;41062;-81
2021/11/07 14:24:15;;;;;;;1.03;0.93;;;;;;;10.60;72.34;99031.31;5087936;28;42886;-82
2021/11/07 14:26:49;;;;;;;0.67;0.67;;;;;;;10.58;72.47;99027.88;5091123;28;42072;-83
2021/11/07 14:29:22;;;;;;;1.30;1.20;;;;;;;10.46;72.64;99023.31;5089529;28;38708;-83
2021/11/07 14:31:55;;;;;;;1.00;0.90;;;;;;;10.37;73.05;99012.34;5073922;28;40954;-82
2021/11/07 14:34:29;;;;;;;1.03;1.03;;;;;;;10.33;72.99;99000.22;5089882;28;42939;-82
2021/11/07 14:37:02;;;;;;;1.13;1.03;;;;;;;10.43;73.06;99021.69;5090477;28;41763;-83
2021/11/07 14:39:42;;;;;;;1.10;1.00;;;;;;;10.36;73.20;99001.84;5089461;28;39924;-81
2021/11/07 14:42:26;;;;;;;1.27;1.00;;;;;;;10.39;73.29;99013.09;5089039;28;41726;-82
